< < Back
Terminal Aerodrome Forecast


Current Version              Previous Versions:   1  2  3  4  5  6  7  8  9  

Terminal Aerodrome Forecast

323
FTUS42 KFFC 011700
TAFPDK
TAF
KPDK 011720Z 0118/0218 24004KT P6SM SCT050
     FM020100 VRB03KT P6SM SKC
     FM021300 17003KT P6SM BKN030
     FM021500 17004KT P6SM SCT045=



Latest METAR

721
SAUS70 KWBC 011800 RRX
MTRPDK
METAR KPDK 011753Z 15006KT 10SM FEW060 28/13 A3000 RMK AO2 SLP146
T02830133 10289 20144 58008


USA.gov is the U.S. government's official web portal to all federal, state and local government web resources and services.